Terminal Aerodrome Forecast
Issued by NWS Wilmington, OH

Current Version | Previous Version | Text Only | Print | Product List | Glossary Off
Versions: 1 2 3 4 5 6 7 8 9 10 11 12 13 14 15 16 17 18 19 20

595
FTUS41 KILN 251411 AAA
TAFDAY
TAF AMD
KDAY 251411Z 2514/2612 22008KT P6SM BKN012
     FM251600 24011KT P6SM SCT025
     FM260000 29007KT P6SM SCT050
     FM260300 32006KT P6SM SCT250
     FM260900 35005KT P6SM SCT250=

USA.gov is the U.S. government's official web portal to all federal, state and local government web resources and services.